Time;durP1;ratioP1;P1;durP2;ratioP2;P2;SDS_P1;SDS_P2;PMS_P1;PMS_P2;Temp;Humidity;BMP_temperature;BMP_pressure;BME280_temperature;BME280_humidity;BME280_pressure;Samples;Min_cycle;Max_cycle;Signal;HPM_P1;HPM_P2
2021/06/19 00:01:05;;;;;;;6.83;1.72;;;;;;;21.45;57.85;99963.59;1769041;81;20898;-69
2021/06/19 00:03:32;;;;;;;5.12;1.37;;;;;;;21.42;58.03;99960.98;1768214;81;21103;-69
2021/06/19 00:05:59;;;;;;;3.15;1.27;;;;;;;21.40;58.07;99960.55;1767214;81;21041;-72
2021/06/19 00:08:25;;;;;;;6.40;1.42;;;;;;;21.39;58.20;99964.55;1767055;81;21020;-73
2021/06/19 00:10:52;;;;;;;4.37;1.52;;;;;;;21.36;58.26;99958.33;1767313;81;21545;-71
2021/06/19 00:13:18;;;;;;;6.22;1.50;;;;;;;21.35;58.33;99962.30;1767346;81;21016;-71
2021/06/19 00:15:45;;;;;;;4.50;1.57;;;;;;;21.33;58.54;99957.08;1767304;80;21576;-71
2021/06/19 00:18:11;;;;;;;11.88;1.72;;;;;;;21.31;58.74;99958.05;1751800;81;21066;-74
2021/06/19 00:20:39;;;;;;;5.45;1.40;;;;;;;21.30;58.77;99960.66;1731470;82;21162;-70
2021/06/19 00:23:05;;;;;;;5.28;1.45;;;;;;;21.29;58.93;99954.81;1731445;83;20881;-69
2021/06/19 00:25:33;;;;;;;2.70;1.72;;;;;;;21.27;58.93;99953.80;1737203;81;20963;-73
2021/06/19 00:27:59;;;;;;;5.97;2.00;;;;;;;21.27;58.91;99954.42;1747198;81;20984;-69
2021/06/19 00:30:26;;;;;;;5.78;2.00;;;;;;;21.26;58.91;99954.19;1769212;81;20914;-67
2021/06/19 00:32:52;;;;;;;3.35;1.65;;;;;;;21.25;58.87;99953.99;1768908;81;21517;-72
2021/06/19 00:35:20;;;;;;;3.50;1.75;;;;;;;21.24;58.96;99952.39;1763595;81;21050;-71
2021/06/19 00:37:51;;;;;;;6.67;1.65;;;;;;;21.20;59.00;99950.94;1762512;80;20895;-72
2021/06/19 00:40:16;;;;;;;9.10;1.57;;;;;;;21.16;59.15;99957.91;1757273;81;20935;-73
2021/06/19 00:42:56;;;;;;;2.95;1.60;;;;;;;21.12;59.31;99950.04;1763530;81;21042;-70
2021/06/19 00:45:27;;;;;;;6.50;2.05;;;;;;;21.13;59.38;99947.47;1753104;81;21108;-69
2021/06/19 00:47:55;;;;;;;6.40;1.87;;;;;;;21.11;59.53;99947.03;1763307;81;20928;-69
2021/06/19 00:50:21;;;;;;;4.53;1.30;;;;;;;21.11;59.47;99941.44;1758145;81;21005;-72
2021/06/19 00:52:48;;;;;;;8.78;2.02;;;;;;;21.10;59.52;99943.22;1763166;81;21013;-70
2021/06/19 00:55:16;;;;;;;8.88;1.80;;;;;;;21.09;59.52;99948.59;1756985;81;21419;-73
2021/06/19 00:57:43;;;;;;;12.50;1.70;;;;;;;21.07;59.63;99947.58;1761442;81;21122;-74
2021/06/19 01:00:10;;;;;;;9.28;1.90;;;;;;;21.09;59.60;99953.61;1733196;82;21013;-72
2021/06/19 01:02:37;;;;;;;4.60;1.22;;;;;;;21.09;59.60;99949.41;1731945;82;21010;-69
2021/06/19 01:05:07;;;;;;;10.32;1.80;;;;;;;21.08;59.63;99950.61;1708487;82;20904;-71
2021/06/19 01:07:33;;;;;;;11.05;1.92;;;;;;;21.08;59.68;99950.61;1705778;84;21583;-70
2021/06/19 01:10:00;;;;;;;5.37;1.85;;;;;;;21.06;59.60;99945.98;1731796;82;21545;-72
2021/06/19 01:12:26;;;;;;;12.00;1.77;;;;;;;21.05;59.79;99945.77;1736644;81;21000;-73
2021/06/19 01:14:53;;;;;;;10.55;2.60;;;;;;;21.03;59.90;99937.73;1733805;82;21095;-70
2021/06/19 01:17:21;;;;;;;8.80;1.92;;;;;;;21.02;59.84;99945.93;1709249;82;21004;-71
2021/06/19 01:20:12;;;;;;;7.87;1.85;;;;;;;21.00;59.91;99941.91;1736393;82;21108;-69
2021/06/19 01:22:43;;;;;;;7.87;2.00;;;;;;;21.00;59.89;99941.91;1736401;81;20984;-70
2021/06/19 01:25:13;;;;;;;9.50;1.77;;;;;;;20.98;59.97;99936.70;1730724;81;21075;-70
2021/06/19 01:27:41;;;;;;;4.97;2.02;;;;;;;20.97;60.12;99935.65;1736491;81;21046;-69
2021/06/19 01:30:09;;;;;;;6.12;1.85;;;;;;;20.98;60.14;99931.68;1736581;82;21018;-69
2021/06/19 01:32:38;;;;;;;4.67;1.62;;;;;;;20.96;60.23;99932.06;1737040;82;20880;-70
2021/06/19 01:35:08;;;;;;;5.87;2.02;;;;;;;20.94;60.22;99933.62;1736161;82;21119;-73
2021/06/19 01:37:35;;;;;;;3.10;1.60;;;;;;;20.94;60.29;99928.02;1736444;81;20988;-71
2021/06/19 01:40:11;;;;;;;3.45;1.42;;;;;;;20.91;60.23;99930.36;1736439;81;21040;-73
2021/06/19 01:42:38;;;;;;;5.17;1.67;;;;;;;20.91;60.22;99931.75;1730714;82;20953;-72
2021/06/19 01:45:08;;;;;;;3.12;1.67;;;;;;;20.91;60.23;99935.17;1736771;82;20999;-69
2021/06/19 01:47:34;;;;;;;14.15;2.05;;;;;;;20.91;60.23;99933.16;1737292;82;21122;-72
2021/06/19 01:50:07;;;;;;;4.65;1.80;;;;;;;20.90;60.22;99934.35;1737036;82;21480;-69
2021/06/19 01:52:34;;;;;;;6.72;1.70;;;;;;;20.90;60.24;99936.34;1687242;83;20923;-73
2021/06/19 01:55:01;;;;;;;7.80;2.20;;;;;;;20.89;60.29;99936.14;1707217;82;21044;-70
2021/06/19 01:57:29;;;;;;;7.00;1.77;;;;;;;20.88;60.30;99935.94;1706931;84;21107;-69
2021/06/19 02:00:17;;;;;;;8.75;2.30;;;;;;;20.90;60.34;99932.14;1707229;84;21035;-75
2021/06/19 02:02:45;;;;;;;11.38;1.95;;;;;;;20.90;60.22;99934.35;1735912;81;21429;-70
2021/06/19 02:05:12;;;;;;;7.03;1.50;;;;;;;20.90;60.13;99932.14;1736155;81;21524;-74
2021/06/19 02:07:57;;;;;;;5.62;2.00;;;;;;;20.88;60.26;99931.13;1736470;82;21543;-72
2021/06/19 02:10:33;;;;;;;3.50;1.77;;;;;;;20.87;60.37;99931.50;1735610;81;20916;-73
2021/06/19 02:13:00;;;;;;;1.80;1.17;;;;;;;20.87;60.56;99929.52;1736045;82;21492;-72
2021/06/19 02:15:28;;;;;;;5.60;1.72;;;;;;;20.88;60.29;99933.14;1736358;81;20873;-70
2021/06/19 02:17:55;;;;;;;11.97;2.08;;;;;;;20.88;60.36;99936.72;1727329;82;20993;-70
2021/06/19 02:20:21;;;;;;;4.83;1.30;;;;;;;20.87;60.41;99933.72;1704429;82;21493;-71
2021/06/19 02:22:48;;;;;;;9.65;1.57;;;;;;;20.86;60.44;99934.92;1728173;82;20957;-70
2021/06/19 02:25:17;;;;;;;3.27;1.40;;;;;;;20.86;60.66;99932.70;1736368;82;21066;-73
2021/06/19 02:28:00;;;;;;;4.40;1.40;;;;;;;20.84;60.68;99928.89;1721540;82;21013;-74
2021/06/19 02:30:30;;;;;;;2.92;1.35;;;;;;;20.81;60.70;99933.85;1705598;83;20936;-75
2021/06/19 02:32:57;;;;;;;7.20;1.60;;;;;;;20.81;60.74;99931.05;1705374;83;20977;-71
2021/06/19 02:35:26;;;;;;;12.43;1.67;;;;;;;20.82;60.75;99942.45;1705604;84;21062;-72
2021/06/19 02:37:53;;;;;;;4.60;1.77;;;;;;;20.82;60.95;99947.23;1715862;82;21049;-76
2021/06/19 02:40:19;;;;;;;6.78;2.35;;;;;;;20.84;60.92;99946.27;1736396;82;21065;-75
2021/06/19 02:42:45;;;;;;;3.08;1.57;;;;;;;20.83;60.95;99951.05;1736283;82;21469;-71
2021/06/19 02:45:12;;;;;;;3.45;1.52;;;;;;;20.84;61.01;99944.28;1736301;82;20992;-71
2021/06/19 02:47:44;;;;;;;6.60;1.90;;;;;;;20.84;61.05;99952.69;1731751;82;20996;-71
2021/06/19 02:50:11;;;;;;;4.62;1.55;;;;;;;20.84;60.96;99954.67;1736189;81;21107;-74
2021/06/19 02:52:41;;;;;;;3.25;1.60;;;;;;;20.85;61.04;99948.69;1736746;82;21002;-71
2021/06/19 02:55:10;;;;;;;3.27;1.70;;;;;;;20.87;61.10;99951.11;1735847;82;21849;-72
2021/06/19 02:57:36;;;;;;;11.75;1.70;;;;;;;20.89;61.09;99948.16;1733845;82;20869;-73
2021/06/19 03:00:08;;;;;;;3.87;1.70;;;;;;;20.90;60.97;99944.16;1735812;82;20967;-72
2021/06/19 03:02:34;;;;;;;7.65;1.80;;;;;;;20.91;61.10;99944.97;1735834;82;21095;-69
2021/06/19 03:05:00;;;;;;;11.40;1.82;;;;;;;20.92;61.01;99952.98;1756733;81;20987;-70
2021/06/19 03:07:26;;;;;;;11.12;2.02;;;;;;;20.94;61.00;99947.62;1755859;81;20991;-74
2021/06/19 03:09:54;;;;;;;6.70;1.82;;;;;;;20.94;61.05;99952.63;1762734;81;20955;-76
2021/06/19 03:12:20;;;;;;;4.58;1.75;;;;;;;20.97;60.98;99949.65;1763240;81;21123;-70
2021/06/19 03:14:49;;;;;;;13.40;2.08;;;;;;;20.97;61.00;99951.87;1757027;81;21932;-76
2021/06/19 03:17:16;;;;;;;7.15;2.17;;;;;;;20.98;61.14;99952.09;1731430;83;21481;-74
2021/06/19 03:19:43;;;;;;;6.17;1.60;;;;;;;21.01;61.12;99954.13;1760000;81;21040;-71
2021/06/19 03:22:10;;;;;;;4.60;1.40;;;;;;;21.04;61.19;99959.55;1743724;82;21143;-75
2021/06/19 03:24:38;;;;;;;6.28;2.05;;;;;;;21.03;61.17;99962.94;1763329;81;20914;-75
2021/06/19 03:27:07;;;;;;;4.97;1.50;;;;;;;21.03;61.05;99962.94;1762843;81;21428;-72
2021/06/19 03:29:35;;;;;;;8.10;1.75;;;;;;;21.06;60.96;99967.56;1755543;81;20959;-69
2021/06/19 03:32:03;;;;;;;5.05;1.40;;;;;;;21.07;60.92;99967.19;1731332;83;20959;-76
2021/06/19 03:34:31;;;;;;;5.87;1.55;;;;;;;21.09;61.04;99966.22;1736188;82;21019;-72
2021/06/19 03:37:01;;;;;;;7.40;1.27;;;;;;;21.10;60.91;99968.43;1736631;82;21409;-74
2021/06/19 03:39:28;;;;;;;15.80;2.27;;;;;;;21.13;60.88;99971.86;1743171;81;21477;-72
2021/06/19 03:41:55;;;;;;;5.03;1.72;;;;;;;21.17;60.74;99972.73;1763040;81;20947;-73
2021/06/19 03:44:22;;;;;;;7.05;1.92;;;;;;;21.19;60.67;99975.14;1763215;81;20887;-70
2021/06/19 03:46:49;;;;;;;4.67;1.60;;;;;;;21.20;60.87;99972.54;1745980;81;21546;-74
2021/06/19 03:49:16;;;;;;;2.65;1.40;;;;;;;21.20;60.89;99976.16;1730455;83;21598;-73
2021/06/19 03:51:42;;;;;;;3.62;1.70;;;;;;;21.21;60.96;99977.76;1735221;82;21069;-75
2021/06/19 03:54:08;;;;;;;7.10;1.60;;;;;;;21.21;60.79;99976.94;1735321;82;21038;-72
2021/06/19 03:56:34;;;;;;;6.55;2.10;;;;;;;21.22;60.93;99981.38;1749377;81;21080;-71
2021/06/19 03:59:01;;;;;;;11.03;2.05;;;;;;;21.22;60.91;99982.16;1761912;81;21538;-71
2021/06/19 04:01:29;;;;;;;8.43;1.70;;;;;;;21.24;61.02;99977.61;1761416;81;21066;-71
2021/06/19 04:03:56;;;;;;;6.40;1.30;;;;;;;21.24;61.22;99978.39;1758178;81;21543;-71
2021/06/19 04:06:22;;;;;;;3.22;1.37;;;;;;;21.26;61.15;99974.62;1727795;81;21493;-74
2021/06/19 04:08:51;;;;;;;7.70;1.67;;;;;;;21.32;61.11;99975.67;1705502;83;21032;-73
2021/06/19 04:11:18;;;;;;;3.92;1.55;;;;;;;21.34;60.90;99976.11;1703977;84;21438;-68
2021/06/19 04:13:45;;;;;;;11.70;2.08;;;;;;;21.35;61.06;99977.13;1705539;84;20984;-74
2021/06/19 04:16:11;;;;;;;2.15;1.52;;;;;;;21.40;61.07;99981.56;1707967;82;21544;-72
2021/06/19 04:18:46;;;;;;;5.12;1.52;;;;;;;21.45;61.19;99979.01;1735836;82;21007;-70
2021/06/19 04:21:13;;;;;;;4.95;1.72;;;;;;;21.49;61.07;99981.27;1701936;84;20932;-72
2021/06/19 04:23:39;;;;;;;7.72;1.95;;;;;;;21.53;60.97;99985.71;1701638;84;20936;-71
2021/06/19 04:26:07;;;;;;;4.70;1.42;;;;;;;21.60;61.24;99989.77;1706423;82;21531;-70
2021/06/19 04:28:35;;;;;;;6.47;1.60;;;;;;;21.68;61.25;99987.86;1736521;81;22044;-70
2021/06/19 04:31:11;;;;;;;9.13;1.87;;;;;;;21.74;61.11;99990.52;1736679;82;20947;-70
2021/06/19 04:33:38;;;;;;;5.53;1.67;;;;;;;21.75;61.04;99988.73;1725992;82;20932;-72
2021/06/19 04:36:08;;;;;;;4.40;1.50;;;;;;;21.77;61.01;99986.34;1711807;82;20933;-72
2021/06/19 04:38:34;;;;;;;4.70;1.52;;;;;;;21.78;60.81;99982.95;1732679;82;21515;-72
2021/06/19 04:41:07;;;;;;;6.70;1.77;;;;;;;21.77;60.85;99977.13;1725886;81;21560;-72
2021/06/19 04:46:12;;;;;;;17.82;2.10;;;;;;;21.81;60.80;99984.20;1709383;82;21052;-69
2021/06/19 04:48:39;;;;;;;10.50;1.57;;;;;;;21.85;60.97;99987.86;1722374;82;21048;-69
2021/06/19 04:51:05;;;;;;;4.97;1.65;;;;;;;21.87;60.89;99982.06;1719249;82;20949;-69
2021/06/19 04:53:33;;;;;;;9.93;1.80;;;;;;;21.91;60.57;99991.09;1718934;81;21130;-71
2021/06/19 04:56:03;;;;;;;6.60;1.77;;;;;;;21.92;60.59;99984.31;1721666;82;21015;-75
2021/06/19 04:58:33;;;;;;;4.40;1.80;;;;;;;21.96;60.69;99989.34;1724866;82;21551;-75
2021/06/19 05:01:01;;;;;;;8.78;2.37;;;;;;;22.03;60.95;99990.81;1736039;82;21504;-76
2021/06/19 05:03:29;;;;;;;4.30;1.50;;;;;;;22.11;60.48;99986.05;1723759;81;21248;-68
2021/06/19 05:05:55;;;;;;;9.35;2.30;;;;;;;22.15;60.10;99981.29;1723029;81;21103;-73
2021/06/19 05:08:25;;;;;;;5.75;1.90;;;;;;;22.18;60.02;99976.30;1693831;83;20996;-76
2021/06/19 05:10:53;;;;;;;4.85;2.00;;;;;;;22.21;59.96;99972.71;1718862;82;21513;-72
2021/06/19 05:13:23;;;;;;;5.22;1.57;;;;;;;22.30;60.09;99975.77;1728020;82;20983;-73
2021/06/19 05:15:51;;;;;;;6.60;1.87;;;;;;;22.34;60.08;99973.81;1736160;82;20976;-69
2021/06/19 05:18:17;;;;;;;7.05;1.60;;;;;;;22.38;59.80;99976.84;1736487;82;21124;-69
2021/06/19 05:20:44;;;;;;;7.08;1.77;;;;;;;22.43;59.54;99979.09;1736062;82;20927;-76
2021/06/19 05:23:10;;;;;;;7.83;1.95;;;;;;;22.48;59.45;99976.70;1730165;82;21005;-71
2021/06/19 05:25:40;;;;;;;9.93;2.00;;;;;;;22.55;59.87;99973.16;1736375;81;21018;-74
2021/06/19 05:28:07;;;;;;;6.60;1.90;;;;;;;22.61;59.71;99970.20;1730942;82;21039;-69
2021/06/19 05:30:35;;;;;;;9.73;2.98;;;;;;;22.69;59.67;99986.48;1723335;82;21461;-70
2021/06/19 05:33:02;;;;;;;9.60;1.80;;;;;;;22.76;59.25;99979.31;1727487;81;21016;-68
2021/06/19 05:35:30;;;;;;;8.70;1.70;;;;;;;22.80;58.95;99977.31;1726719;82;21555;-70
2021/06/19 05:37:56;;;;;;;8.53;1.92;;;;;;;22.82;58.94;99981.95;1719575;82;20969;-70
2021/06/19 05:40:22;;;;;;;13.85;2.67;;;;;;;22.86;59.24;99989.77;1732535;82;21004;-70
2021/06/19 05:42:55;;;;;;;6.83;2.50;;;;;;;22.94;59.44;99985.02;1718793;82;21473;-70
2021/06/19 05:45:21;;;;;;;5.47;1.90;;;;;;;22.99;59.25;99986.04;1718816;81;21556;-68
2021/06/19 05:47:47;;;;;;;16.35;2.33;;;;;;;23.04;59.18;99990.47;1724615;82;21015;-70
2021/06/19 05:50:14;;;;;;;12.78;2.20;;;;;;;23.08;58.88;99993.48;1728710;82;21078;-69
2021/06/19 05:52:41;;;;;;;8.53;1.80;;;;;;;23.09;58.73;99988.09;1723496;82;21540;-69
2021/06/19 05:55:09;;;;;;;7.15;1.77;;;;;;;23.12;58.51;99982.86;1721385;82;21128;-69
2021/06/19 05:57:39;;;;;;;4.62;2.33;;;;;;;23.17;58.54;99988.09;1719590;82;21418;-72
2021/06/19 06:00:07;;;;;;;7.65;2.00;;;;;;;23.21;58.56;99982.72;1724882;81;21622;-69
2021/06/19 06:02:35;;;;;;;8.63;1.92;;;;;;;23.28;58.60;99989.55;1723012;82;20992;-69
2021/06/19 06:05:03;;;;;;;7.40;2.40;;;;;;;23.33;58.96;99991.98;1724500;81;21061;-70
2021/06/19 06:07:29;;;;;;;7.62;2.00;;;;;;;23.39;58.84;99996.62;1718123;81;21088;-70
2021/06/19 06:09:57;;;;;;;6.12;2.98;;;;;;;23.42;58.53;99993.05;1728677;81;21004;-72
2021/06/19 06:12:25;;;;;;;4.15;1.87;;;;;;;23.44;58.43;99992.84;1736405;82;20972;-72
2021/06/19 06:14:52;;;;;;;5.35;2.10;;;;;;;23.47;58.39;99994.06;1736556;82;21008;-71
2021/06/19 06:17:18;;;;;;;7.95;2.27;;;;;;;23.49;58.56;99990.85;1736362;82;21194;-70
2021/06/19 06:19:45;;;;;;;9.08;1.98;;;;;;;23.52;58.08;99999.89;1736493;82;21797;-71
2021/06/19 06:22:11;;;;;;;4.70;1.60;;;;;;;23.55;58.20;100003.30;1736604;82;21459;-72
2021/06/19 06:24:38;;;;;;;7.28;2.47;;;;;;;23.58;58.52;100000.51;1736343;82;20960;-70
2021/06/19 06:27:05;;;;;;;8.80;2.42;;;;;;;23.65;58.92;99996.09;1736297;81;20953;-71
2021/06/19 06:29:33;;;;;;;23.02;2.83;;;;;;;23.70;58.74;99993.70;1736561;82;21004;-73
2021/06/19 06:32:01;;;;;;;16.02;2.77;;;;;;;23.75;58.29;99999.52;1736446;82;21069;-72
2021/06/19 06:34:28;;;;;;;11.78;2.77;;;;;;;23.81;58.59;100003.57;1736454;82;21004;-72
2021/06/19 06:36:56;;;;;;;5.85;2.20;;;;;;;23.88;58.22;100000.55;1713873;82;20896;-72
2021/06/19 06:39:23;;;;;;;11.12;2.62;;;;;;;23.92;57.95;99995.13;1735852;82;20956;-72
2021/06/19 06:41:49;;;;;;;13.18;2.80;;;;;;;23.97;58.05;99991.72;1735876;82;21047;-71
2021/06/19 06:44:17;;;;;;;11.40;2.90;;;;;;;24.03;58.08;99991.52;1711655;82;21116;-74
2021/06/19 06:46:44;;;;;;;13.55;2.58;;;;;;;24.10;58.09;99989.30;1735568;82;21153;-70
2021/06/19 06:49:10;;;;;;;10.15;2.52;;;;;;;24.21;58.21;99992.94;1708711;82;21051;-72
2021/06/19 06:51:40;;;;;;;8.13;2.27;;;;;;;24.28;58.11;99985.09;1706425;83;21000;-73
2021/06/19 06:54:06;;;;;;;7.47;2.15;;;;;;;24.35;57.53;99989.91;1661352;84;21079;-76
2021/06/19 06:56:33;;;;;;;13.18;3.22;;;;;;;24.40;57.46;99995.94;1707071;84;21488;-74
2021/06/19 06:58:59;;;;;;;10.70;2.58;;;;;;;24.46;57.91;99994.13;1706994;84;20983;-73
2021/06/19 07:01:26;;;;;;;9.43;2.20;;;;;;;24.53;57.83;99997.72;1735510;82;20884;-75
2021/06/19 07:03:56;;;;;;;12.23;2.42;;;;;;;24.60;57.74;99997.53;1736431;82;21004;-71
2021/06/19 07:06:24;;;;;;;15.48;2.42;;;;;;;24.65;57.66;99995.08;1736785;81;21027;-69
2021/06/19 07:08:51;;;;;;;9.68;2.05;;;;;;;24.71;57.78;99992.66;1736246;82;21019;-71
2021/06/19 07:11:21;;;;;;;3.85;2.05;;;;;;;24.77;57.98;99991.66;1736224;82;20949;-71
2021/06/19 07:13:49;;;;;;;31.12;2.75;;;;;;;24.82;57.46;99994.65;1736447;82;21586;-71
2021/06/19 07:16:18;;;;;;;3.33;1.52;;;;;;;24.88;57.11;100000.86;1736436;81;20956;-71
2021/06/19 07:18:45;;;;;;;13.88;1.57;;;;;;;24.95;57.68;99997.84;1736524;81;21003;-72
2021/06/19 07:21:12;;;;;;;6.35;1.67;;;;;;;25.02;57.33;99994.41;1736438;81;21150;-73
2021/06/19 07:23:38;;;;;;;18.10;2.50;;;;;;;25.09;56.81;99985.13;1727950;82;21451;-75
2021/06/19 07:26:05;;;;;;;12.25;2.40;;;;;;;25.12;56.42;99995.58;1703300;84;20950;-69
2021/06/19 07:28:31;;;;;;;5.60;2.05;;;;;;;25.17;56.75;99997.16;1710623;83;20983;-73
2021/06/19 07:30:58;;;;;;;10.75;2.15;;;;;;;25.25;57.09;99993.09;1710659;83;21081;-71
2021/06/19 07:33:24;;;;;;;41.35;4.33;;;;;;;25.33;56.92;99989.64;1703630;84;21106;-72
2021/06/19 07:35:54;;;;;;;18.07;2.95;;;;;;;25.40;56.31;99989.58;1710486;84;21008;-69
2021/06/19 07:38:19;;;;;;;6.53;2.15;;;;;;;25.45;56.04;99991.78;1703678;83;21291;-69
2021/06/19 07:40:46;;;;;;;11.97;2.67;;;;;;;25.52;56.70;99992.53;1710346;83;21099;-70
2021/06/19 07:43:20;;;;;;;7.28;2.05;;;;;;;25.61;56.34;99994.09;1703741;84;20921;-69
2021/06/19 07:45:49;;;;;;;11.00;2.27;;;;;;;25.69;56.26;99994.26;1710511;84;21183;-74
2021/06/19 07:48:19;;;;;;;4.10;2.08;;;;;;;25.74;55.93;99988.18;1710438;84;20964;-72
2021/06/19 07:50:46;;;;;;;9.60;2.67;;;;;;;25.81;55.85;99980.91;1710474;83;20964;-74
2021/06/19 07:53:13;;;;;;;8.10;2.72;;;;;;;25.84;55.58;99980.88;1697635;84;20988;-69
2021/06/19 07:55:39;;;;;;;12.70;2.83;;;;;;;25.93;55.91;99982.42;1726816;83;21025;-67
2021/06/19 07:58:08;;;;;;;13.32;2.45;;;;;;;25.98;56.02;99984.17;1726321;82;20979;-68
2021/06/19 08:00:35;;;;;;;12.53;2.90;;;;;;;26.05;54.82;99979.70;1743960;81;20892;-67
2021/06/19 08:03:01;;;;;;;7.35;2.77;;;;;;;26.02;54.86;99981.33;1717089;83;21500;-67
2021/06/19 08:05:29;;;;;;;7.50;2.35;;;;;;;26.06;55.35;99981.30;1715013;82;21457;-67
2021/06/19 08:07:55;;;;;;;7.97;2.45;;;;;;;26.13;55.33;99969.35;1725798;81;21450;-66
2021/06/19 08:10:22;;;;;;;8.78;2.27;;;;;;;26.20;55.67;99970.50;1755482;81;21070;-67
2021/06/19 08:12:50;;;;;;;8.75;2.65;;;;;;;26.25;55.04;99968.00;1718525;83;21405;-67
2021/06/19 08:15:16;;;;;;;10.32;2.75;;;;;;;26.32;55.09;99962.92;1718756;83;20983;-67
2021/06/19 08:17:42;;;;;;;16.25;2.72;;;;;;;26.37;55.09;99970.95;1718573;83;20979;-69
2021/06/19 08:20:10;;;;;;;7.62;2.35;;;;;;;26.46;55.55;99967.62;1718886;83;21036;-66
2021/06/19 08:22:37;;;;;;;7.87;2.37;;;;;;;26.58;55.73;99968.34;1718357;81;21055;-66
2021/06/19 08:25:05;;;;;;;6.65;2.80;;;;;;;26.66;54.84;99960.57;1718453;83;21377;-67
2021/06/19 08:27:31;;;;;;;7.58;2.20;;;;;;;26.73;54.32;99959.86;1718412;83;20920;-67
2021/06/19 08:29:58;;;;;;;9.15;2.87;;;;;;;26.78;53.40;99965.69;1718874;81;21538;-67
2021/06/19 08:32:25;;;;;;;14.00;3.05;;;;;;;26.83;53.97;99957.34;1728698;81;20961;-67
2021/06/19 08:34:52;;;;;;;9.35;2.37;;;;;;;26.89;53.91;99953.42;1736728;82;21084;-69
2021/06/19 08:37:19;;;;;;;9.70;3.25;;;;;;;26.94;54.17;99960.83;1736469;82;20940;-68
2021/06/19 08:39:46;;;;;;;10.20;3.67;;;;;;;27.00;53.82;99954.71;1736402;82;20988;-66
2021/06/19 08:42:12;;;;;;;11.03;3.22;;;;;;;27.05;53.50;99948.63;1736322;82;21005;-66
2021/06/19 08:44:38;;;;;;;13.25;3.90;;;;;;;27.08;53.39;99952.01;1736759;82;20940;-69
2021/06/19 08:47:06;;;;;;;13.72;3.98;;;;;;;27.10;52.65;99950.38;1682490;84;21410;-66
2021/06/19 08:49:33;;;;;;;7.62;3.70;;;;;;;27.15;52.66;99950.50;1703263;84;20925;-72
2021/06/19 08:52:00;;;;;;;13.08;3.67;;;;;;;27.21;52.18;99949.42;1731082;82;21101;-69
2021/06/19 08:54:26;;;;;;;17.07;4.28;;;;;;;27.27;51.86;99952.56;1736540;82;21496;-67
2021/06/19 08:56:54;;;;;;;9.75;3.08;;;;;;;27.29;52.48;99945.88;1735903;82;21074;-68
2021/06/19 08:59:21;;;;;;;6.47;2.80;;;;;;;27.34;52.35;99942.57;1736285;82;21095;-69
2021/06/19 09:01:47;;;;;;;8.35;3.55;;;;;;;27.36;52.14;99954.87;1736028;82;21027;-69
2021/06/19 09:04:13;;;;;;;18.60;4.65;;;;;;;27.39;51.69;99951.18;1736311;82;21037;-66
2021/06/19 09:06:43;;;;;;;7.75;3.02;;;;;;;27.44;52.39;99949.28;1736232;81;20932;-67
2021/06/19 09:09:19;;;;;;;16.62;3.87;;;;;;;27.53;52.10;99948.76;1731447;82;20941;-68
2021/06/19 09:11:52;;;;;;;22.67;4.37;;;;;;;27.58;52.04;99942.02;1724106;82;21103;-68
2021/06/19 09:14:24;;;;;;;24.85;3.77;;;;;;;27.66;52.54;99937.03;1725019;81;21111;-68
2021/06/19 09:17:04;;;;;;;23.50;4.70;;;;;;;27.65;52.97;99939.69;1728099;82;21674;-70
2021/06/19 09:19:34;;;;;;;15.65;4.30;;;;;;;27.66;53.06;99941.27;1728710;82;21544;-67
2021/06/19 09:22:15;;;;;;;17.57;3.83;;;;;;;27.65;53.94;99942.52;1724479;82;21070;-71
2021/06/19 09:24:56;;;;;;;13.05;3.08;;;;;;;27.68;53.11;99930.94;1711951;83;20987;-71
2021/06/19 09:27:46;;;;;;;17.12;3.60;;;;;;;27.72;53.46;99935.97;1737629;82;21094;-71
2021/06/19 09:30:22;;;;;;;8.63;2.52;;;;;;;27.77;53.28;99934.06;1740654;82;21067;-70
2021/06/19 09:32:57;;;;;;;10.43;4.20;;;;;;;27.85;53.95;99935.34;1742158;80;20919;-70
2021/06/19 09:35:30;;;;;;;10.95;3.20;;;;;;;27.94;52.76;99932.14;1741755;81;20924;-70
2021/06/19 09:38:12;;;;;;;15.72;3.27;;;;;;;28.01;51.78;99930.43;1741997;82;21110;-69
2021/06/19 09:40:43;;;;;;;17.42;3.67;;;;;;;28.07;52.11;99926.67;1741793;82;21478;-66
2021/06/19 09:43:18;;;;;;;18.65;3.42;;;;;;;28.14;51.31;99938.48;1741407;82;22014;-71
2021/06/19 09:46:09;;;;;;;10.65;3.20;;;;;;;28.18;52.17;99926.45;1737057;82;21019;-71
2021/06/19 09:48:40;;;;;;;6.70;2.80;;;;;;;28.25;51.83;99926.16;1739744;82;21516;-70
2021/06/19 09:51:24;;;;;;;8.38;2.80;;;;;;;28.34;50.19;99923.58;1735979;82;21149;-71
2021/06/19 09:53:54;;;;;;;7.08;2.65;;;;;;;28.41;50.26;99922.63;1735882;82;20991;-69
2021/06/19 09:56:22;;;;;;;6.70;2.62;;;;;;;28.45;51.00;99924.80;1727153;82;20952;-68
2021/06/19 09:58:55;;;;;;;23.42;3.40;;;;;;;28.50;51.31;99914.98;1744181;81;21000;-67
2021/06/19 10:01:36;;;;;;;12.23;2.75;;;;;;;28.54;50.46;99923.59;1704301;83;20985;-69
2021/06/19 10:04:04;;;;;;;10.70;2.75;;;;;;;28.60;50.15;99929.55;1738048;82;21496;-71
2021/06/19 10:06:30;;;;;;;4.67;2.42;;;;;;;28.62;48.81;99912.92;1748826;81;20966;-73
2021/06/19 10:08:57;;;;;;;10.48;2.40;;;;;;;28.66;48.94;99912.22;1744022;81;20925;-70
2021/06/19 10:11:26;;;;;;;5.72;1.82;;;;;;;28.72;50.19;99908.87;1738599;82;21000;-72
2021/06/19 10:13:54;;;;;;;20.05;2.55;;;;;;;28.78;49.44;99905.09;1752897;81;21518;-71
2021/06/19 10:16:23;;;;;;;5.08;1.95;;;;;;;28.83;48.67;99907.23;1763371;81;21088;-69
2021/06/19 10:18:50;;;;;;;9.83;2.87;;;;;;;28.90;49.11;99910.70;1764322;81;20979;-71
2021/06/19 10:21:18;;;;;;;5.08;2.10;;;;;;;29.01;48.96;99902.00;1755231;81;21001;-70
2021/06/19 10:23:45;;;;;;;8.85;2.55;;;;;;;29.11;48.67;99899.35;1759072;81;20991;-73
2021/06/19 10:26:12;;;;;;;9.83;2.42;;;;;;;29.10;48.26;99888.65;1752667;81;21342;-69
2021/06/19 10:28:46;;;;;;;15.43;3.27;;;;;;;29.11;49.25;99899.35;1752659;81;21973;-71
2021/06/19 10:31:14;;;;;;;10.28;2.75;;;;;;;29.11;49.17;99902.19;1763136;80;20998;-74
2021/06/19 10:33:41;;;;;;;6.72;1.98;;;;;;;29.09;48.86;99903.27;1776212;80;21018;-70
2021/06/19 10:36:09;;;;;;;6.50;1.90;;;;;;;28.99;48.52;99900.83;1776338;80;21501;-72
2021/06/19 10:38:54;;;;;;;9.83;3.40;;;;;;;28.91;48.26;99886.00;1773569;80;20877;-67
2021/06/19 10:41:24;;;;;;;16.27;3.00;;;;;;;28.88;48.63;99891.91;1766618;80;21136;-69
2021/06/19 10:43:52;;;;;;;14.58;2.95;;;;;;;28.97;48.25;99889.91;1773180;80;20969;-71
2021/06/19 10:46:33;;;;;;;7.22;2.00;;;;;;;29.11;47.74;99899.35;1739967;80;21028;-68
2021/06/19 10:49:06;;;;;;;7.50;2.00;;;;;;;29.22;46.75;99893.44;1772982;80;20961;-70
2021/06/19 10:51:33;;;;;;;7.55;1.65;;;;;;;29.27;46.34;99897.17;1725214;83;21535;-71
2021/06/19 10:54:21;;;;;;;16.40;1.92;;;;;;;29.31;46.11;99884.33;1757127;81;21055;-69
2021/06/19 10:56:57;;;;;;;10.40;2.47;;;;;;;29.41;47.23;99891.78;1736164;82;20973;-69
2021/06/19 10:59:27;;;;;;;5.25;1.52;;;;;;;29.52;46.40;99892.92;1764503;81;20980;-71
2021/06/19 11:01:57;;;;;;;12.98;2.90;;;;;;;29.55;46.16;99899.77;1762893;81;20995;-67
2021/06/19 11:04:42;;;;;;;7.67;2.00;;;;;;;29.61;46.26;99898.82;1734547;82;21343;-68
2021/06/19 11:07:21;;;;;;;12.50;2.08;;;;;;;29.68;46.42;99899.27;1738692;81;21194;-69
2021/06/19 11:09:48;;;;;;;15.03;2.60;;;;;;;29.83;46.85;99894.63;1736710;82;21537;-72
2021/06/19 11:12:25;;;;;;;8.50;2.50;;;;;;;30.02;46.57;99891.50;1731881;82;20950;-69
2021/06/19 11:15:05;;;;;;;25.85;2.90;;;;;;;30.11;44.75;99899.38;1719267;82;21481;-70
2021/06/19 11:17:37;;;;;;;10.20;2.22;;;;;;;30.15;44.31;99889.31;1733945;82;21039;-70
2021/06/19 11:20:11;;;;;;;15.15;2.35;;;;;;;30.15;44.26;99900.68;1733957;81;21011;-69
2021/06/19 11:22:40;;;;;;;4.50;1.80;;;;;;;30.15;44.39;99893.58;1729670;82;20900;-71
2021/06/19 11:25:23;;;;;;;8.80;2.37;;;;;;;30.11;44.57;99890.22;1726887;82;20926;-71
2021/06/19 11:28:01;;;;;;;18.92;2.33;;;;;;;30.08;45.21;99891.73;1718122;81;20948;-71
2021/06/19 11:30:40;;;;;;;4.42;1.72;;;;;;;30.10;45.82;99898.58;1738466;82;21537;-71
2021/06/19 11:33:23;;;;;;;12.47;1.95;;;;;;;30.08;45.48;99895.99;1734229;82;21793;-70
2021/06/19 11:36:04;;;;;;;3.95;1.77;;;;;;;30.08;44.98;99893.95;1736831;81;21524;-68
2021/06/19 11:38:49;;;;;;;10.20;2.37;;;;;;;30.06;45.50;99895.66;1733726;82;21600;-68
2021/06/19 11:41:19;;;;;;;10.55;2.02;;;;;;;30.12;46.23;99888.99;1712516;82;21492;-69
2021/06/19 11:43:49;;;;;;;14.05;2.77;;;;;;;30.20;46.21;99886.74;1741443;81;21417;-71